createdAt,value
2023-02-17T00:00:13.847Z,0.00
2023-02-17T00:01:13.768Z,0.00
2023-02-17T00:02:13.751Z,0.00
2023-02-17T00:03:13.747Z,0.00
2023-02-17T00:04:13.730Z,0.00
2023-02-17T00:05:13.679Z,0.00
2023-02-17T00:06:13.696Z,0.00
2023-02-17T00:07:13.677Z,0.00
2023-02-17T00:08:13.648Z,0.00
2023-02-17T00:09:13.629Z,0.00
2023-02-17T00:10:13.661Z,0.00
2023-02-17T00:11:13.616Z,0.00
2023-02-17T00:12:13.679Z,0.00
2023-02-17T00:13:13.633Z,0.00
2023-02-17T00:14:13.585Z,0.00
2023-02-17T00:15:13.566Z,0.00
2023-02-17T00:16:13.598Z,0.00
2023-02-17T00:17:13.539Z,0.00
2023-02-17T00:18:13.530Z,0.00
2023-02-17T00:19:13.511Z,0.00
2023-02-17T00:20:13.521Z,0.00
2023-02-17T00:21:13.513Z,0.00
2023-02-17T00:22:13.499Z,0.00
2023-02-17T00:23:13.501Z,0.00
2023-02-17T00:24:13.470Z,0.00
2023-02-17T00:25:13.465Z,0.00
2023-02-17T00:26:13.513Z,0.00
2023-02-17T00:27:13.493Z,0.00
2023-02-17T00:28:13.508Z,0.00
2023-02-17T00:29:13.421Z,0.00
2023-02-17T00:30:13.469Z,0.00
2023-02-17T00:31:13.478Z,0.00
2023-02-17T00:32:13.493Z,0.00
2023-02-17T00:33:13.400Z,0.00
2023-02-17T00:34:13.367Z,0.00
2023-02-17T00:35:13.352Z,0.00
2023-02-17T00:36:13.346Z,0.00
2023-02-17T00:37:13.356Z,0.00
2023-02-17T00:38:13.328Z,0.00
2023-02-17T00:39:13.325Z,0.00
2023-02-17T00:40:13.294Z,0.00
2023-02-17T00:41:13.274Z,0.00
2023-02-17T00:42:13.382Z,0.00
2023-02-17T00:43:13.254Z,0.00
2023-02-17T00:44:15.053Z,0.00
2023-02-17T00:45:13.236Z,0.00
2023-02-17T00:46:13.285Z,0.00
2023-02-17T00:47:13.225Z,0.00
2023-02-17T00:48:13.216Z,0.00
2023-02-17T00:49:13.204Z,0.00
2023-02-17T00:50:13.205Z,0.00
2023-02-17T00:51:13.165Z,0.00
2023-02-17T00:52:13.179Z,0.00
2023-02-17T00:53:13.456Z,0.00
2023-02-17T00:54:13.141Z,0.00
2023-02-17T00:55:13.115Z,0.00
2023-02-17T00:56:13.173Z,0.00
2023-02-17T00:57:13.123Z,0.00
2023-02-17T00:58:13.097Z,0.00
2023-02-17T00:59:13.083Z,0.00
2023-02-17T01:00:13.066Z,0.00
2023-02-17T01:01:13.082Z,0.00
2023-02-17T01:02:13.073Z,0.00
2023-02-17T01:03:13.033Z,0.00
2023-02-17T01:04:13.090Z,0.00
2023-02-17T01:05:13.031Z,0.00
2023-02-17T01:06:13.033Z,0.00
2023-02-17T01:07:12.996Z,0.00
2023-02-17T01:08:13.005Z,0.00
2023-02-17T01:09:12.968Z,0.00
2023-02-17T01:10:13.002Z,0.00
2023-02-17T01:11:12.957Z,0.00
2023-02-17T01:12:12.963Z,0.00
2023-02-17T01:13:12.940Z,0.00
2023-02-17T01:14:12.926Z,0.00
2023-02-17T01:15:12.927Z,0.00
2023-02-17T01:16:12.917Z,0.00
2023-02-17T01:17:12.879Z,0.00
2023-02-17T01:18:12.891Z,0.00
2023-02-17T01:19:12.880Z,0.00
2023-02-17T01:20:12.902Z,0.00
2023-02-17T01:21:12.835Z,0.00
2023-02-17T01:22:12.851Z,0.00
2023-02-17T01:23:12.844Z,0.00
2023-02-17T01:24:12.807Z,0.00
2023-02-17T01:25:12.867Z,0.00
2023-02-17T01:26:12.784Z,0.00
2023-02-17T01:27:12.787Z,0.00
2023-02-17T01:28:12.774Z,0.00
2023-02-17T01:29:12.743Z,0.00
2023-02-17T01:30:12.774Z,0.00
2023-02-17T01:31:12.922Z,0.00
2023-02-17T01:32:12.731Z,0.00
2023-02-17T01:33:12.713Z,0.00
2023-02-17T01:34:12.720Z,0.00
2023-02-17T01:35:12.672Z,0.00
2023-02-17T01:36:12.669Z,0.00
2023-02-17T01:37:12.695Z,0.00
2023-02-17T01:38:12.669Z,0.00
2023-02-17T01:39:12.648Z,0.00
2023-02-17T01:40:12.620Z,0.00
2023-02-17T01:41:12.608Z,0.00
2023-02-17T01:42:12.598Z,0.00
2023-02-17T01:43:12.605Z,0.00
2023-02-17T01:44:12.600Z,0.00
2023-02-17T01:45:12.557Z,0.00
2023-02-17T01:46:12.579Z,0.00
2023-02-17T01:47:12.781Z,0.00
2023-02-17T01:48:12.533Z,0.00
2023-02-17T01:49:12.513Z,0.00
2023-02-17T01:50:12.515Z,0.00
2023-02-17T01:51:12.493Z,0.00
2023-02-17T01:52:12.501Z,0.00
2023-02-17T01:53:12.477Z,0.00
2023-02-17T01:54:12.482Z,0.00
2023-02-17T01:55:12.433Z,0.00
2023-02-17T01:56:12.463Z,0.00
2023-02-17T01:57:12.451Z,0.00
2023-02-17T01:58:12.771Z,0.00
2023-02-17T01:59:12.432Z,0.00
2023-02-17T02:00:12.398Z,0.00
2023-02-17T02:01:12.396Z,0.00
2023-02-17T02:02:12.533Z,0.00
2023-02-17T02:03:12.391Z,0.00
2023-02-17T02:04:12.408Z,0.00
2023-02-17T02:05:12.391Z,0.00
2023-02-17T02:06:12.333Z,0.00
2023-02-17T02:07:12.332Z,0.00
2023-02-17T02:08:12.315Z,0.00
2023-02-17T02:09:12.327Z,0.00
2023-02-17T02:10:12.275Z,0.00
2023-02-17T02:11:12.317Z,0.00
2023-02-17T02:12:12.305Z,0.00
2023-02-17T02:13:12.278Z,0.00
2023-02-17T02:14:12.256Z,0.00
2023-02-17T02:15:12.272Z,0.00
2023-02-17T02:16:12.387Z,0.00
2023-02-17T02:17:12.228Z,0.00
2023-02-17T02:18:12.235Z,0.00
2023-02-17T02:19:12.188Z,0.00
2023-02-17T02:20:12.178Z,0.00
2023-02-17T02:21:12.194Z,0.00
2023-02-17T02:22:12.210Z,0.00
2023-02-17T02:23:12.161Z,0.00
2023-02-17T02:24:12.144Z,0.00
2023-02-17T02:25:12.148Z,0.00
2023-02-17T02:26:12.105Z,0.00
2023-02-17T02:27:12.104Z,0.00
2023-02-17T02:28:12.080Z,0.00
2023-02-17T02:29:12.117Z,0.00
2023-02-17T02:30:12.114Z,0.00
2023-02-17T02:31:12.173Z,0.00
2023-02-17T02:32:12.040Z,0.00
2023-02-17T02:33:12.039Z,0.00
2023-02-17T02:34:12.023Z,0.00
2023-02-17T02:35:12.034Z,0.00
2023-02-17T02:36:11.993Z,0.00
2023-02-17T02:37:11.985Z,0.00
2023-02-17T02:38:11.976Z,0.00
2023-02-17T02:39:11.984Z,0.00
2023-02-17T02:40:11.954Z,0.00
2023-02-17T02:41:12.145Z,0.00
2023-02-17T02:42:11.924Z,0.00
2023-02-17T02:43:11.927Z,0.00
2023-02-17T02:44:11.937Z,0.00
2023-02-17T02:45:11.941Z,0.00
2023-02-17T02:46:11.910Z,0.00
2023-02-17T02:47:11.893Z,0.00
2023-02-17T02:48:11.853Z,0.00
2023-02-17T02:49:11.891Z,0.00
2023-02-17T02:50:11.857Z,0.00
2023-02-17T02:51:11.897Z,0.00
2023-02-17T02:52:11.812Z,0.00
2023-02-17T02:53:11.845Z,0.00
2023-02-17T02:54:11.816Z,0.00
2023-02-17T02:55:11.795Z,0.00
2023-02-17T02:56:11.767Z,0.00
2023-02-17T02:57:11.779Z,0.00
2023-02-17T02:58:11.748Z,0.00
2023-02-17T02:59:11.782Z,0.00
2023-02-17T03:00:11.727Z,0.00
2023-02-17T03:01:11.752Z,0.00
2023-02-17T03:02:11.703Z,0.00
2023-02-17T03:03:11.724Z,0.00
2023-02-17T03:04:11.682Z,0.00
2023-02-17T03:05:11.684Z,0.00
2023-02-17T03:06:11.667Z,0.00
2023-02-17T03:07:11.648Z,0.00
2023-02-17T03:08:11.624Z,0.00
2023-02-17T03:09:11.627Z,0.00
2023-02-17T03:10:11.606Z,0.00
2023-02-17T03:11:11.880Z,0.00
2023-02-17T03:12:11.593Z,0.00
2023-02-17T03:13:11.599Z,0.00
2023-02-17T03:14:11.596Z,0.00
2023-02-17T03:15:11.576Z,0.00
2023-02-17T03:16:11.565Z,0.00
2023-02-17T03:17:11.538Z,0.00
2023-02-17T03:18:11.549Z,0.00
2023-02-17T03:19:11.530Z,0.00
2023-02-17T03:20:11.524Z,0.00
2023-02-17T03:21:11.504Z,0.00
2023-02-17T03:22:11.471Z,0.00
2023-02-17T03:23:18.656Z,0.00
2023-02-17T03:24:11.649Z,0.00
2023-02-17T03:25:11.673Z,0.00
2023-02-17T03:26:11.598Z,0.00
2023-02-17T03:27:11.661Z,0.00
2023-02-17T03:28:11.635Z,0.00
2023-02-17T03:29:11.736Z,0.00
2023-02-17T03:30:11.891Z,0.00
2023-02-17T03:31:11.439Z,0.00
2023-02-17T03:32:11.445Z,0.00
2023-02-17T03:33:11.715Z,0.00
2023-02-17T03:34:11.369Z,0.00
2023-02-17T03:35:11.771Z,0.00
2023-02-17T03:36:18.764Z,0.00
2023-02-17T03:37:11.305Z,0.00
2023-02-17T03:38:11.292Z,0.00
2023-02-17T03:39:11.293Z,0.00
2023-02-17T03:40:11.439Z,0.00
2023-02-17T03:41:11.708Z,0.00
2023-02-17T03:42:11.249Z,0.00
2023-02-17T03:43:11.259Z,0.00
2023-02-17T03:44:11.231Z,0.00
2023-02-17T03:45:11.246Z,0.00
2023-02-17T03:46:11.254Z,0.00
2023-02-17T03:47:11.204Z,0.00
2023-02-17T03:48:11.186Z,0.00
2023-02-17T03:49:12.989Z,0.00
2023-02-17T03:50:11.161Z,0.00
2023-02-17T03:51:11.204Z,0.00
2023-02-17T03:52:11.140Z,0.00
2023-02-17T03:53:11.137Z,0.00
2023-02-17T03:54:11.114Z,0.00
2023-02-17T03:55:11.125Z,0.00
2023-02-17T03:56:11.088Z,0.00
2023-02-17T03:57:11.110Z,0.00
2023-02-17T03:58:11.088Z,0.00
2023-02-17T03:59:11.094Z,0.00
2023-02-17T04:00:11.085Z,0.00
2023-02-17T04:01:11.082Z,0.00
2023-02-17T04:02:11.010Z,0.00
2023-02-17T04:03:11.045Z,0.00
2023-02-17T04:04:11.078Z,0.00
2023-02-17T04:05:11.006Z,0.00
2023-02-17T04:06:11.009Z,0.00
2023-02-17T04:07:10.993Z,0.00
2023-02-17T04:08:11.001Z,0.00
2023-02-17T04:09:10.981Z,0.00
2023-02-17T04:10:10.939Z,0.00
2023-02-17T04:11:10.949Z,0.00
2023-02-17T04:12:10.914Z,0.00
2023-02-17T04:13:10.924Z,0.00
2023-02-17T04:14:10.914Z,0.00
2023-02-17T04:15:10.886Z,0.00
2023-02-17T04:16:10.859Z,0.00
2023-02-17T04:17:10.868Z,0.00
2023-02-17T04:18:10.844Z,0.00
2023-02-17T04:19:10.857Z,0.00
2023-02-17T04:20:10.836Z,0.00
2023-02-17T04:21:10.820Z,0.00
2023-02-17T04:22:10.799Z,0.00
2023-02-17T04:23:10.805Z,0.00
2023-02-17T04:24:10.794Z,0.00
2023-02-17T04:25:10.774Z,0.00
2023-02-17T04:26:10.748Z,0.00
2023-02-17T04:27:10.746Z,0.00
2023-02-17T04:28:10.729Z,0.00
2023-02-17T04:29:10.727Z,0.00
2023-02-17T04:30:12.344Z,0.00
2023-02-17T04:31:10.813Z,0.00
2023-02-17T04:32:10.743Z,0.00
2023-02-17T04:33:10.683Z,0.00
2023-02-17T04:34:10.661Z,0.00
2023-02-17T04:35:10.662Z,0.00
2023-02-17T04:36:10.632Z,0.00
2023-02-17T04:37:10.640Z,0.00
2023-02-17T04:38:10.613Z,0.00
2023-02-17T04:39:10.608Z,0.00
2023-02-17T04:40:10.644Z,0.00
2023-02-17T04:41:10.636Z,0.00
2023-02-17T04:42:10.576Z,0.00
2023-02-17T04:43:10.568Z,0.00
2023-02-17T04:44:10.560Z,0.00
2023-02-17T04:45:10.562Z,0.00
2023-02-17T04:46:10.642Z,0.00
2023-02-17T04:47:10.559Z,0.00
2023-02-17T04:48:10.499Z,0.00
2023-02-17T04:49:10.512Z,0.00
2023-02-17T04:50:10.487Z,0.00
2023-02-17T04:51:10.483Z,0.00
2023-02-17T04:52:10.461Z,0.00
2023-02-17T04:53:10.466Z,0.00
2023-02-17T04:54:10.440Z,0.00
2023-02-17T04:55:10.445Z,0.00
2023-02-17T04:56:10.416Z,0.00
2023-02-17T04:57:10.440Z,0.00
2023-02-17T04:58:10.424Z,0.00
2023-02-17T04:59:10.441Z,0.00
2023-02-17T05:00:10.368Z,0.00
2023-02-17T05:01:10.413Z,0.00
2023-02-17T05:02:10.363Z,0.00
2023-02-17T05:03:10.358Z,0.00
2023-02-17T05:04:10.321Z,0.00
2023-02-17T05:05:10.397Z,0.00
2023-02-17T05:06:10.313Z,0.00
2023-02-17T05:07:10.324Z,0.00
2023-02-17T05:08:10.275Z,0.00
2023-02-17T05:09:10.300Z,0.00
2023-02-17T05:10:10.351Z,0.00
2023-02-17T05:11:10.258Z,0.00
2023-02-17T05:12:10.251Z,0.00
2023-02-17T05:13:10.243Z,0.00
2023-02-17T05:14:10.220Z,0.00
2023-02-17T05:15:10.228Z,0.00
2023-02-17T05:16:10.270Z,0.00
2023-02-17T05:17:10.193Z,0.00
2023-02-17T05:18:10.180Z,0.00
2023-02-17T05:19:10.408Z,0.00
2023-02-17T05:20:10.162Z,0.00
2023-02-17T05:21:10.192Z,0.00
2023-02-17T05:22:10.147Z,0.00
2023-02-17T05:23:10.131Z,0.00
2023-02-17T05:24:10.101Z,0.00
2023-02-17T05:25:10.111Z,0.00
2023-02-17T05:26:10.091Z,0.00
2023-02-17T05:27:10.116Z,0.00
2023-02-17T05:28:10.077Z,0.00
2023-02-17T05:29:10.055Z,0.00
2023-02-17T05:30:10.278Z,0.00
2023-02-17T05:31:10.099Z,0.00
2023-02-17T05:32:10.129Z,0.00
2023-02-17T05:33:10.012Z,0.00
2023-02-17T05:34:09.981Z,0.00
2023-02-17T05:35:10.107Z,0.00
2023-02-17T05:36:10.021Z,0.00
2023-02-17T05:37:09.963Z,0.00
2023-02-17T05:38:09.946Z,0.00
2023-02-17T05:39:09.965Z,0.00
2023-02-17T05:40:09.952Z,0.00
2023-02-17T05:41:09.917Z,0.00
2023-02-17T05:42:09.936Z,0.00
2023-02-17T05:43:09.911Z,0.00
2023-02-17T05:44:09.894Z,0.00
2023-02-17T05:45:09.888Z,0.00
2023-02-17T05:46:10.345Z,0.00
2023-02-17T05:47:09.871Z,0.00
2023-02-17T05:48:09.902Z,0.00
2023-02-17T05:49:09.844Z,0.00
2023-02-17T05:50:09.911Z,0.00
2023-02-17T05:51:09.808Z,0.00
2023-02-17T05:52:09.820Z,0.00
2023-02-17T05:53:09.799Z,0.00
2023-02-17T05:54:09.819Z,0.00
2023-02-17T05:55:09.804Z,0.00
2023-02-17T05:56:09.800Z,0.00
2023-02-17T05:57:09.775Z,0.00
2023-02-17T05:58:09.723Z,0.00
2023-02-17T05:59:09.726Z,0.00
2023-02-17T06:00:09.726Z,0.00
2023-02-17T06:01:09.707Z,0.00
2023-02-17T06:02:09.715Z,0.00
2023-02-17T06:03:09.761Z,0.00
2023-02-17T06:04:09.686Z,0.00
2023-02-17T06:05:09.768Z,0.00
2023-02-17T06:06:09.630Z,0.00
2023-02-17T06:07:09.629Z,0.00
2023-02-17T06:08:09.922Z,0.00
2023-02-17T06:09:09.632Z,0.00
2023-02-17T06:10:09.601Z,0.00
2023-02-17T06:11:09.633Z,0.00
2023-02-17T06:12:09.569Z,0.00
2023-02-17T06:13:09.569Z,0.00
2023-02-17T06:14:09.556Z,0.00
2023-02-17T06:15:09.530Z,0.00
2023-02-17T06:16:09.968Z,0.00
2023-02-17T06:17:09.517Z,0.00
2023-02-17T06:18:09.501Z,0.00
2023-02-17T06:19:09.490Z,0.00
2023-02-17T06:20:09.569Z,0.00
2023-02-17T06:21:09.563Z,0.00
2023-02-17T06:22:09.470Z,0.00
2023-02-17T06:23:09.453Z,0.00
2023-02-17T06:24:09.469Z,4.00
2023-02-17T06:25:09.440Z,4.00
2023-02-17T06:26:09.422Z,4.00
2023-02-17T06:27:09.519Z,4.00
2023-02-17T06:28:09.424Z,0.00
2023-02-17T06:29:09.385Z,0.00
2023-02-17T06:30:09.403Z,4.00
2023-02-17T06:31:09.570Z,4.00
2023-02-17T06:32:09.391Z,4.00
2023-02-17T06:33:09.340Z,4.00
2023-02-17T06:34:09.381Z,4.00
2023-02-17T06:35:09.307Z,4.00
2023-02-17T06:36:09.391Z,4.00
2023-02-17T06:37:09.306Z,4.00
2023-02-17T06:38:09.339Z,4.00
2023-02-17T06:39:10.015Z,4.00
2023-02-17T06:40:09.325Z,4.00
2023-02-17T06:41:09.248Z,8.00
2023-02-17T06:42:09.247Z,8.00
2023-02-17T06:43:09.220Z,8.00
2023-02-17T06:44:09.268Z,4.00
2023-02-17T06:45:09.234Z,8.00
2023-02-17T06:46:09.686Z,8.00
2023-02-17T06:47:09.199Z,8.00
2023-02-17T06:48:09.167Z,8.00
2023-02-17T06:49:09.158Z,8.00
2023-02-17T06:50:09.150Z,8.00
2023-02-17T06:51:09.116Z,12.00
2023-02-17T06:52:09.152Z,12.00
2023-02-17T06:53:09.107Z,12.00
2023-02-17T06:54:09.099Z,16.00
2023-02-17T06:55:09.205Z,12.00
2023-02-17T06:56:09.075Z,16.00
2023-02-17T06:57:09.064Z,16.00
2023-02-17T06:58:09.045Z,20.00
2023-02-17T06:59:09.043Z,16.00
2023-02-17T07:00:09.039Z,20.00
2023-02-17T07:01:09.020Z,20.00
2023-02-17T07:02:09.104Z,20.00
2023-02-17T07:03:09.040Z,24.00
2023-02-17T07:04:08.990Z,28.00
2023-02-17T07:05:08.982Z,28.00
2023-02-17T07:06:09.289Z,28.00
2023-02-17T07:07:08.979Z,28.00
2023-02-17T07:08:08.955Z,32.00
2023-02-17T07:09:08.970Z,32.00
2023-02-17T07:10:08.932Z,32.00
2023-02-17T07:11:08.901Z,32.00
2023-02-17T07:12:08.894Z,36.00
2023-02-17T07:13:08.873Z,40.00
2023-02-17T07:14:08.901Z,40.00
2023-02-17T07:15:12.054Z,48.00
2023-02-17T07:16:09.311Z,48.00
2023-02-17T07:17:08.834Z,52.00
2023-02-17T07:18:08.863Z,52.00
2023-02-17T07:19:08.853Z,60.00
2023-02-17T07:20:08.825Z,52.00
2023-02-17T07:21:08.794Z,52.00
2023-02-17T07:22:08.793Z,56.00
2023-02-17T07:23:08.774Z,64.00
2023-02-17T07:24:08.773Z,56.00
2023-02-17T07:25:08.767Z,56.00
2023-02-17T07:26:08.913Z,56.00
2023-02-17T07:27:10.705Z,60.00
2023-02-17T07:28:08.722Z,80.00
2023-02-17T07:29:08.726Z,80.00
2023-02-17T07:30:08.732Z,96.00
2023-02-17T07:31:08.750Z,104.00
2023-02-17T07:32:08.782Z,116.00
2023-02-17T07:33:08.674Z,116.00
2023-02-17T07:34:08.662Z,108.00
2023-02-17T07:35:08.656Z,96.00
2023-02-17T07:36:08.760Z,100.00
2023-02-17T07:37:08.642Z,108.00
2023-02-17T07:38:08.622Z,108.00
2023-02-17T07:39:08.781Z,108.00
2023-02-17T07:40:08.580Z,100.00
2023-02-17T07:41:08.573Z,112.00
2023-02-17T07:42:08.563Z,108.00
2023-02-17T07:43:08.568Z,100.00
2023-02-17T07:44:08.547Z,96.00
2023-02-17T07:45:08.531Z,92.00
2023-02-17T07:46:09.026Z,92.00
2023-02-17T07:47:08.512Z,88.00
2023-02-17T07:48:08.536Z,88.00
2023-02-17T07:49:08.470Z,96.00
2023-02-17T07:50:08.471Z,100.00
2023-02-17T07:51:08.449Z,120.00
2023-02-17T07:52:08.472Z,104.00
2023-02-17T07:53:08.441Z,108.00
2023-02-17T07:54:08.448Z,108.00
2023-02-17T07:55:08.418Z,104.00
2023-02-17T07:56:08.672Z,100.00
2023-02-17T07:57:08.400Z,104.00
2023-02-17T07:58:08.406Z,112.00
2023-02-17T07:59:08.914Z,112.00
2023-02-17T08:00:10.738Z,112.00
2023-02-17T08:01:08.350Z,112.00
2023-02-17T08:02:08.378Z,104.00
2023-02-17T08:03:08.318Z,100.00
2023-02-17T08:04:08.359Z,100.00
2023-02-17T08:05:08.292Z,104.00
2023-02-17T08:06:08.600Z,104.00
2023-02-17T08:07:08.301Z,104.00
2023-02-17T08:08:08.264Z,96.00
2023-02-17T08:09:08.271Z,96.00
2023-02-17T08:10:08.237Z,96.00
2023-02-17T08:11:08.539Z,92.00
2023-02-17T08:12:08.270Z,100.00
2023-02-17T08:13:08.210Z,96.00
2023-02-17T08:14:08.209Z,100.00
2023-02-17T08:15:08.192Z,100.00
2023-02-17T08:16:08.620Z,104.00
2023-02-17T08:17:08.168Z,104.00
2023-02-17T08:18:08.162Z,104.00
2023-02-17T08:19:08.340Z,112.00
2023-02-17T08:20:09.273Z,116.00
2023-02-17T08:21:08.439Z,120.00
2023-02-17T08:22:08.152Z,120.00
2023-02-17T08:23:08.123Z,128.00
2023-02-17T08:24:08.090Z,124.00
2023-02-17T08:25:08.091Z,124.00
2023-02-17T08:26:08.451Z,140.00
2023-02-17T08:27:08.078Z,128.00
2023-02-17T08:28:08.047Z,128.00
2023-02-17T08:29:08.049Z,144.00
2023-02-17T08:30:08.093Z,140.00
2023-02-17T08:31:08.101Z,148.00
2023-02-17T08:32:08.218Z,144.00
2023-02-17T08:33:07.983Z,152.00
2023-02-17T08:34:07.991Z,168.00
2023-02-17T08:35:07.971Z,180.00
2023-02-17T08:36:08.291Z,172.00
2023-02-17T08:37:07.960Z,176.00
2023-02-17T08:38:07.936Z,180.00
2023-02-17T08:39:07.922Z,164.00
2023-02-17T08:40:07.911Z,172.00
2023-02-17T08:41:07.916Z,200.00
2023-02-17T08:42:07.913Z,200.00
2023-02-17T08:43:07.901Z,204.00
2023-02-17T08:44:07.870Z,232.00
2023-02-17T08:45:07.854Z,212.00
2023-02-17T08:46:08.243Z,228.00
2023-02-17T08:47:07.929Z,208.00
2023-02-17T08:48:07.841Z,212.00
2023-02-17T08:49:07.855Z,200.00
2023-02-17T08:50:07.817Z,212.00
2023-02-17T08:51:07.797Z,204.00
2023-02-17T08:52:07.804Z,200.00
2023-02-17T08:53:07.876Z,204.00
2023-02-17T08:54:07.756Z,196.00
2023-02-17T08:55:07.737Z,192.00
2023-02-17T08:56:08.066Z,192.00
2023-02-17T08:57:07.765Z,180.00
2023-02-17T08:58:07.788Z,176.00
2023-02-17T08:59:07.741Z,176.00
2023-02-17T09:00:07.770Z,180.00
2023-02-17T09:01:07.758Z,180.00
2023-02-17T09:02:07.699Z,184.00
2023-02-17T09:03:07.679Z,192.00
2023-02-17T09:04:07.677Z,184.00
2023-02-17T09:05:07.715Z,184.00
2023-02-17T09:06:08.074Z,192.00
2023-02-17T09:07:07.608Z,184.00
2023-02-17T09:08:07.668Z,184.00
2023-02-17T09:09:07.610Z,180.00
2023-02-17T09:10:07.585Z,184.00
2023-02-17T09:11:09.501Z,172.00
2023-02-17T09:12:07.570Z,180.00
2023-02-17T09:13:07.560Z,180.00
2023-02-17T09:14:07.556Z,176.00
2023-02-17T09:15:07.519Z,172.00
2023-02-17T09:16:07.925Z,160.00
2023-02-17T09:17:07.489Z,172.00
2023-02-17T09:18:07.467Z,180.00
2023-02-17T09:19:07.476Z,176.00
2023-02-17T09:20:13.706Z,180.00
2023-02-17T09:21:08.446Z,204.00
2023-02-17T09:22:07.448Z,192.00
2023-02-17T09:23:07.434Z,188.00
2023-02-17T09:24:14.510Z,212.00
2023-02-17T09:25:07.413Z,216.00
2023-02-17T09:26:07.796Z,220.00
2023-02-17T09:27:07.386Z,236.00
2023-02-17T09:28:07.679Z,240.00
2023-02-17T09:29:07.385Z,244.00
2023-02-17T09:30:07.452Z,256.00
2023-02-17T09:31:07.508Z,272.00
2023-02-17T09:32:07.557Z,268.00
2023-02-17T09:33:07.339Z,256.00
2023-02-17T09:34:07.396Z,252.00
2023-02-17T09:35:07.313Z,256.00
2023-02-17T09:36:07.674Z,264.00
2023-02-17T09:37:07.282Z,256.00
2023-02-17T09:38:07.331Z,268.00
2023-02-17T09:39:07.334Z,300.00
2023-02-17T09:40:07.290Z,340.00
2023-02-17T09:41:07.251Z,300.00
2023-02-17T09:42:07.248Z,292.00
2023-02-17T09:43:07.336Z,304.00
2023-02-17T09:44:07.238Z,324.00
2023-02-17T09:45:07.185Z,316.00
2023-02-17T09:46:07.515Z,324.00
2023-02-17T09:47:07.247Z,352.00
2023-02-17T09:48:07.200Z,424.00
2023-02-17T09:49:07.189Z,512.00
2023-02-17T09:50:07.149Z,432.00
2023-02-17T09:51:07.207Z,400.00
2023-02-17T09:52:07.215Z,460.00
2023-02-17T09:53:07.122Z,528.00
2023-02-17T09:54:07.128Z,472.00
2023-02-17T09:55:07.085Z,428.00
2023-02-17T09:56:07.581Z,432.00
2023-02-17T09:57:07.050Z,464.00
2023-02-17T09:58:07.132Z,472.00
2023-02-17T09:59:07.116Z,460.00
2023-02-17T10:00:07.073Z,572.00
2023-02-17T10:01:07.071Z,524.00
2023-02-17T10:02:07.002Z,548.00
2023-02-17T10:03:07.028Z,500.00
2023-02-17T10:04:07.062Z,448.00
2023-02-17T10:05:06.983Z,484.00
2023-02-17T10:06:07.270Z,528.00
2023-02-17T10:07:06.969Z,472.00
2023-02-17T10:08:06.960Z,500.00
2023-02-17T10:09:06.961Z,488.00
2023-02-17T10:10:06.999Z,656.00
2023-02-17T10:11:06.966Z,608.00
2023-02-17T10:12:06.967Z,624.00
2023-02-17T10:13:06.966Z,708.00
2023-02-17T10:14:06.896Z,640.00
2023-02-17T10:15:06.901Z,700.00
2023-02-17T10:16:07.297Z,616.00
2023-02-17T10:17:06.844Z,480.00
2023-02-17T10:18:06.854Z,528.00
2023-02-17T10:19:06.873Z,488.00
2023-02-17T10:20:06.841Z,444.00
2023-02-17T10:21:06.921Z,408.00
2023-02-17T10:22:06.799Z,408.00
2023-02-17T10:23:06.821Z,340.00
2023-02-17T10:24:06.802Z,364.00
2023-02-17T10:25:06.792Z,368.00
2023-02-17T10:26:07.100Z,452.00
2023-02-17T10:27:06.825Z,404.00
2023-02-17T10:28:07.082Z,472.00
2023-02-17T10:29:06.706Z,560.00
2023-02-17T10:30:06.712Z,736.00
2023-02-17T10:31:06.844Z,728.00
2023-02-17T10:32:06.830Z,816.00
2023-02-17T10:33:06.639Z,788.00
2023-02-17T10:34:06.662Z,804.00
2023-02-17T10:35:06.627Z,812.00
2023-02-17T10:36:06.904Z,784.00
2023-02-17T10:37:06.724Z,832.00
2023-02-17T10:38:06.632Z,732.00
2023-02-17T10:39:06.602Z,684.00
2023-02-17T10:40:06.579Z,588.00
2023-02-17T10:41:06.570Z,528.00
2023-02-17T10:42:06.563Z,648.00
2023-02-17T10:43:07.923Z,632.00
2023-02-17T10:44:06.526Z,640.00
2023-02-17T10:45:06.541Z,572.00
2023-02-17T10:46:06.914Z,672.00
2023-02-17T10:47:06.504Z,672.00
2023-02-17T10:48:06.517Z,744.00
2023-02-17T10:49:07.264Z,704.00
2023-02-17T10:50:06.452Z,896.00
2023-02-17T10:51:06.502Z,844.00
2023-02-17T10:52:06.454Z,904.00
2023-02-17T10:53:06.473Z,1008.00
2023-02-17T10:54:06.401Z,780.00
2023-02-17T10:55:20.846Z,820.00
2023-02-17T10:56:07.751Z,792.00
2023-02-17T10:57:06.421Z,776.00
2023-02-17T10:58:06.381Z,772.00
2023-02-17T10:59:06.390Z,860.00
2023-02-17T11:00:06.352Z,948.00
2023-02-17T11:01:06.522Z,904.00
2023-02-17T11:02:06.321Z,948.00
2023-02-17T11:03:06.332Z,944.00
2023-02-17T11:04:06.374Z,968.00
2023-02-17T11:05:06.301Z,1048.00
2023-02-17T11:06:06.604Z,1120.00
2023-02-17T11:07:06.277Z,1180.00
2023-02-17T11:08:06.266Z,1192.00
2023-02-17T11:09:06.286Z,1364.00
2023-02-17T11:10:06.227Z,1516.00
2023-02-17T11:11:06.226Z,1360.00
2023-02-17T11:12:06.216Z,1424.00
2023-02-17T11:13:06.220Z,1456.00
2023-02-17T11:14:06.207Z,1520.00
2023-02-17T11:15:06.187Z,1444.00
2023-02-17T11:16:06.611Z,1508.00
2023-02-17T11:17:06.408Z,1520.00
2023-02-17T11:18:06.144Z,1724.00
2023-02-17T11:19:06.145Z,2088.00
2023-02-17T11:20:06.152Z,1640.00
2023-02-17T11:21:06.126Z,1640.00
2023-02-17T11:22:06.136Z,1768.00
2023-02-17T11:23:06.104Z,1764.00
2023-02-17T11:24:06.101Z,1640.00
2023-02-17T11:25:06.085Z,1760.00
2023-02-17T11:26:06.314Z,1624.00
2023-02-17T11:27:06.072Z,1568.00
2023-02-17T11:28:06.071Z,1516.00
2023-02-17T11:29:06.029Z,1576.00
2023-02-17T11:30:06.078Z,1544.00
2023-02-17T11:31:06.070Z,1524.00
2023-02-17T11:32:06.044Z,1564.00
2023-02-17T11:33:05.976Z,1544.00
2023-02-17T11:34:05.977Z,1484.00
2023-02-17T11:35:05.994Z,1396.00
2023-02-17T11:36:06.311Z,1352.00
2023-02-17T11:37:06.890Z,1348.00
2023-02-17T11:38:05.911Z,1316.00
2023-02-17T11:39:05.919Z,1252.00
2023-02-17T11:40:05.918Z,1252.00
2023-02-17T11:41:05.913Z,1376.00
2023-02-17T11:42:05.932Z,1376.00
2023-02-17T11:43:05.883Z,1432.00
2023-02-17T11:44:05.852Z,1460.00
2023-02-17T11:45:05.884Z,1612.00
2023-02-17T11:46:06.172Z,1520.00
2023-02-17T11:47:05.864Z,1548.00
2023-02-17T11:48:05.816Z,1504.00
2023-02-17T11:49:05.837Z,1444.00
2023-02-17T11:50:05.801Z,1284.00
2023-02-17T11:51:05.793Z,1356.00
2023-02-17T11:52:05.765Z,1440.00
2023-02-17T11:53:05.820Z,1436.00
2023-02-17T11:54:05.755Z,1520.00
2023-02-17T11:55:05.744Z,1576.00
2023-02-17T11:56:06.047Z,1616.00
2023-02-17T11:57:05.731Z,1560.00
2023-02-17T11:58:05.714Z,1576.00
2023-02-17T11:59:05.705Z,1724.00
2023-02-17T12:00:05.721Z,1964.00
2023-02-17T12:01:05.677Z,1808.00
2023-02-17T12:02:05.691Z,1936.00
2023-02-17T12:03:05.671Z,1760.00
2023-02-17T12:04:05.645Z,1856.00
2023-02-17T12:05:05.647Z,1584.00
2023-02-17T12:06:05.951Z,1768.00
2023-02-17T12:07:05.612Z,1560.00
2023-02-17T12:08:05.591Z,1608.00
2023-02-17T12:09:05.580Z,1476.00
2023-02-17T12:10:05.572Z,1216.00
2023-02-17T12:11:05.566Z,916.00
2023-02-17T12:12:05.548Z,1120.00
2023-02-17T12:13:05.560Z,1160.00
2023-02-17T12:14:05.552Z,1180.00
2023-02-17T12:15:05.520Z,1024.00
2023-02-17T12:16:05.839Z,1016.00
2023-02-17T12:17:05.722Z,960.00
2023-02-17T12:18:05.480Z,936.00
2023-02-17T12:19:05.485Z,768.00
2023-02-17T12:20:05.475Z,584.00
2023-02-17T12:21:05.455Z,556.00
2023-02-17T12:22:05.427Z,600.00
2023-02-17T12:23:05.450Z,612.00
2023-02-17T12:24:05.420Z,620.00
2023-02-17T12:25:05.422Z,616.00
2023-02-17T12:26:05.780Z,604.00
2023-02-17T12:27:05.395Z,640.00
2023-02-17T12:28:05.403Z,764.00
2023-02-17T12:29:05.355Z,860.00
2023-02-17T12:30:05.414Z,896.00
2023-02-17T12:31:05.552Z,888.00
2023-02-17T12:32:05.497Z,900.00
2023-02-17T12:33:05.332Z,896.00
2023-02-17T12:34:05.305Z,908.00
2023-02-17T12:35:05.374Z,872.00
2023-02-17T12:36:05.558Z,808.00
2023-02-17T12:37:05.311Z,772.00
2023-02-17T12:38:05.252Z,784.00
2023-02-17T12:39:05.262Z,776.00
2023-02-17T12:40:05.239Z,852.00
2023-02-17T12:41:05.232Z,856.00
2023-02-17T12:42:05.200Z,828.00
2023-02-17T12:43:05.196Z,784.00
2023-02-17T12:44:05.185Z,780.00
2023-02-17T12:45:05.201Z,660.00
2023-02-17T12:46:05.605Z,612.00
2023-02-17T12:47:05.156Z,592.00
2023-02-17T12:48:05.148Z,564.00
2023-02-17T12:49:07.413Z,488.00
2023-02-17T12:50:05.146Z,464.00
2023-02-17T12:51:05.116Z,492.00
2023-02-17T12:52:05.114Z,408.00
2023-02-17T12:53:05.094Z,380.00